Time;durP1;ratioP1;P1;durP2;ratioP2;P2;SDS_P1;SDS_P2;PMS_P1;PMS_P2;Temp;Humidity;BMP_temperature;BMP_pressure;BME280_temperature;BME280_humidity;BME280_pressure;Samples;Min_cycle;Max_cycle;Signal;HPM_P1;HPM_P2
2022/03/06 00:02:05;;;;;;;1.93;1.63;;;16.90;53.00;;;;;;5200999;28;20237;-65
2022/03/06 00:04:57;;;;;;;1.50;1.37;;;16.90;52.90;;;;;;5192615;28;20191;-65
2022/03/06 00:07:51;;;;;;;2.17;1.47;;;16.90;52.90;;;;;;5204274;28;20313;-65
2022/03/06 00:10:43;;;;;;;1.60;1.43;;;16.90;53.60;;;;;;5203242;28;20284;-65
2022/03/06 00:13:35;;;;;;;1.60;1.20;;;16.90;52.90;;;;;;5206363;28;20225;-65
2022/03/06 00:16:27;;;;;;;1.70;1.57;;;16.90;52.90;;;;;;5205275;28;20329;-65
2022/03/06 00:19:20;;;;;;;2.43;1.20;;;16.80;52.90;;;;;;5204729;28;20690;-66
2022/03/06 00:22:12;;;;;;;1.80;1.40;;;16.90;53.00;;;;;;5195808;28;20277;-66
2022/03/06 00:25:07;;;;;;;2.20;1.57;;;16.80;53.00;;;;;;5205061;28;20752;-66
2022/03/06 00:27:59;;;;;;;1.67;1.33;;;16.90;53.00;;;;;;5203613;28;20260;-65
2022/03/06 00:30:51;;;;;;;2.03;1.67;;;16.90;53.00;;;;;;5203924;28;20738;-65
2022/03/06 00:33:43;;;;;;;1.73;1.50;;;16.80;52.90;;;;;;5206609;28;20669;-65
2022/03/06 00:36:37;;;;;;;1.70;1.20;;;16.90;53.00;;;;;;5205546;28;20229;-64
2022/03/06 00:39:29;;;;;;;1.80;1.30;;;16.90;52.90;;;;;;5205027;28;20279;-65
2022/03/06 00:42:22;;;;;;;1.93;1.30;;;16.90;53.00;;;;;;5203598;28;20544;-66
2022/03/06 00:45:15;;;;;;;1.87;1.40;;;16.90;53.00;;;;;;5204336;28;20228;-66
2022/03/06 00:48:07;;;;;;;1.30;1.07;;;16.90;53.00;;;;;;5206489;28;20248;-65
2022/03/06 00:50:59;;;;;;;2.50;1.50;;;16.90;53.00;;;;;;5201788;28;20241;-64
2022/03/06 00:53:51;;;;;;;1.20;1.10;;;16.90;53.10;;;;;;5204044;28;20197;-65
2022/03/06 00:56:43;;;;;;;2.00;1.50;;;16.80;53.00;;;;;;5204070;28;20252;-65
2022/03/06 00:59:37;;;;;;;1.73;1.30;;;16.90;53.10;;;;;;5204732;28;20681;-65
2022/03/06 01:02:29;;;;;;;2.17;1.40;;;16.80;53.00;;;;;;5202967;28;20198;-65
2022/03/06 01:05:21;;;;;;;1.90;1.43;;;16.90;53.10;;;;;;5205033;28;20283;-65
2022/03/06 01:08:13;;;;;;;1.70;1.43;;;16.90;53.00;;;;;;5202773;28;20281;-66
2022/03/06 01:11:05;;;;;;;2.03;1.43;;;16.90;53.00;;;;;;5201807;28;20213;-65
2022/03/06 01:13:59;;;;;;;1.93;1.10;;;16.90;53.00;;;;;;5203701;28;20194;-64
2022/03/06 01:16:52;;;;;;;2.17;1.40;;;16.90;53.00;;;;;;5205336;28;20308;-66
2022/03/06 01:19:45;;;;;;;1.57;1.20;;;16.90;53.00;;;;;;5203748;28;20210;-65
2022/03/06 01:22:37;;;;;;;1.37;1.03;;;16.90;53.00;;;;;;5203625;28;20272;-65
2022/03/06 01:25:29;;;;;;;2.03;1.27;;;16.90;53.60;;;;;;5203083;28;20276;-65
2022/03/06 01:28:21;;;;;;;1.37;1.10;;;16.90;53.00;;;;;;5224317;28;20190;-65
2022/03/06 01:31:14;;;;;;;1.97;1.30;;;16.90;53.00;;;;;;5206200;28;20301;-65
2022/03/06 01:34:07;;;;;;;1.53;1.30;;;16.90;53.10;;;;;;5203210;28;20194;-65
2022/03/06 01:36:59;;;;;;;1.20;1.10;;;16.90;53.10;;;;;;5201306;28;20197;-65
2022/03/06 01:39:52;;;;;;;1.53;1.10;;;16.90;53.00;;;;;;5201309;28;20280;-65
2022/03/06 01:42:45;;;;;;;1.20;1.10;;;16.90;53.10;;;;;;5202949;28;20202;-65
2022/03/06 01:45:38;;;;;;;1.40;1.30;;;16.90;53.10;;;;;;5203955;28;20238;-65
2022/03/06 01:48:30;;;;;;;1.30;1.03;;;16.90;53.10;;;;;;5204921;28;20202;-66
2022/03/06 01:51:23;;;;;;;1.67;1.30;;;16.90;53.00;;;;;;5203196;28;20766;-65
2022/03/06 01:54:15;;;;;;;1.10;1.00;;;16.90;53.00;;;;;;5203468;28;20566;-66
2022/03/06 01:57:08;;;;;;;1.13;1.03;;;16.90;53.00;;;;;;5204595;28;20280;-65
2022/03/06 02:00:00;;;;;;;1.37;1.10;;;16.90;53.10;;;;;;5202679;28;20812;-65
2022/03/06 02:02:53;;;;;;;2.37;1.57;;;16.80;53.00;;;;;;5201567;28;20276;-65
2022/03/06 02:05:45;;;;;;;1.40;1.10;;;16.90;53.20;;;;;;5203671;28;20190;-66
2022/03/06 02:08:40;;;;;;;1.60;1.10;;;16.90;53.10;;;;;;5204001;28;20729;-65
2022/03/06 02:11:33;;;;;;;1.53;1.30;;;16.90;53.10;;;;;;5204697;28;20206;-66
2022/03/06 02:14:25;;;;;;;1.40;1.10;;;16.90;53.20;;;;;;5204141;28;20194;-66
2022/03/06 02:17:18;;;;;;;1.43;1.23;;;16.90;53.10;;;;;;5203248;28;20683;-66
2022/03/06 02:20:12;;;;;;;2.07;1.30;;;16.90;53.00;;;;;;5203495;28;20920;-66
2022/03/06 02:23:05;;;;;;;2.40;1.20;;;16.80;53.10;;;;;;5203592;28;20328;-65
2022/03/06 02:25:58;;;;;;;1.37;1.20;;;16.80;53.00;;;;;;5203413;28;20321;-65
2022/03/06 02:28:50;;;;;;;2.23;1.20;;;16.90;53.00;;;;;;5204308;28;20233;-65
2022/03/06 02:31:42;;;;;;;0.90;0.90;;;16.80;53.70;;;;;;5202509;28;20198;-66
2022/03/06 02:34:34;;;;;;;2.00;1.23;;;16.90;53.20;;;;;;5203151;28;20230;-66
2022/03/06 02:37:27;;;;;;;1.93;1.30;;;16.90;53.10;;;;;;5204134;28;20771;-66
2022/03/06 02:40:22;;;;;;;1.23;1.13;;;16.80;53.10;;;;;;5205870;28;20279;-66
2022/03/06 02:43:16;;;;;;;1.30;1.03;;;16.90;53.20;;;;;;5207007;28;20201;-65
2022/03/06 02:46:08;;;;;;;1.73;1.20;;;16.90;53.20;;;;;;5206860;28;20197;-65
2022/03/06 02:49:00;;;;;;;1.80;1.30;;;16.90;53.20;;;;;;5208225;28;20655;-65
2022/03/06 02:51:52;;;;;;;1.30;1.10;;;16.90;53.20;;;;;;5205889;28;20190;-65
2022/03/06 02:54:45;;;;;;;1.03;0.87;;;16.90;53.10;;;;;;5206635;28;20204;-65
2022/03/06 02:57:38;;;;;;;2.60;1.30;;;16.90;53.00;;;;;;5206445;28;20251;-66
2022/03/06 03:00:31;;;;;;;1.40;1.30;;;16.90;53.20;;;;;;5204903;28;20341;-65
2022/03/06 03:03:24;;;;;;;1.67;1.37;;;16.90;53.10;;;;;;5206786;28;20661;-65
2022/03/06 03:06:16;;;;;;;2.33;1.40;;;16.90;53.10;;;;;;5206490;28;20203;-65
2022/03/06 03:09:09;;;;;;;1.67;1.30;;;16.80;53.10;;;;;;5206221;28;20292;-65
2022/03/06 03:12:01;;;;;;;1.60;1.10;;;16.80;53.10;;;;;;5205243;28;20269;-65
2022/03/06 03:14:55;;;;;;;1.10;0.93;;;16.90;53.10;;;;;;5206944;28;20283;-66
2022/03/06 03:17:47;;;;;;;1.40;1.20;;;16.90;53.10;;;;;;5204885;28;20253;-65
2022/03/06 03:20:39;;;;;;;1.33;1.03;;;16.90;53.20;;;;;;5204789;28;20206;-65
2022/03/06 03:23:31;;;;;;;1.70;1.20;;;16.90;53.20;;;;;;5207870;28;20202;-66
2022/03/06 03:26:24;;;;;;;1.43;1.17;;;16.90;53.10;;;;;;5205834;28;20277;-66
2022/03/06 03:29:16;;;;;;;1.00;0.90;;;16.90;53.70;;;;;;5205596;28;20263;-66
2022/03/06 03:32:10;;;;;;;1.27;0.90;;;16.90;53.10;;;;;;5205318;28;20722;-65
2022/03/06 03:35:03;;;;;;;1.40;1.10;;;16.90;53.10;;;;;;5206567;28;20566;-65
2022/03/06 03:37:55;;;;;;;1.50;1.00;;;16.80;52.90;;;;;;5205919;28;20201;-65
2022/03/06 03:40:47;;;;;;;0.97;0.90;;;16.90;53.00;;;;;;5204013;28;20284;-66
2022/03/06 03:43:39;;;;;;;1.47;1.10;;;16.90;53.00;;;;;;5205276;28;20208;-66
2022/03/06 03:46:31;;;;;;;1.73;1.20;;;16.90;53.10;;;;;;5205128;28;20277;-66
2022/03/06 03:49:24;;;;;;;1.17;0.90;;;16.80;53.10;;;;;;5204443;28;20197;-66
2022/03/06 03:52:17;;;;;;;0.87;0.83;;;16.80;53.10;;;;;;5204065;28;20247;-65
2022/03/06 03:55:10;;;;;;;1.20;0.90;;;16.90;53.20;;;;;;5205939;28;20204;-66
2022/03/06 03:58:02;;;;;;;1.40;0.97;;;16.90;53.10;;;;;;5204571;28;20277;-66
2022/03/06 04:00:54;;;;;;;1.47;1.00;;;16.80;53.10;;;;;;5204118;28;20209;-65
2022/03/06 04:03:46;;;;;;;1.93;1.20;;;16.90;53.00;;;;;;5205652;28;20194;-66
2022/03/06 04:06:39;;;;;;;1.37;1.00;;;16.90;53.00;;;;;;5204922;28;20240;-66
2022/03/06 04:09:32;;;;;;;1.27;1.00;;;16.90;53.00;;;;;;5204526;28;20308;-66
2022/03/06 04:12:24;;;;;;;1.40;1.20;;;16.90;53.00;;;;;;5205263;28;20273;-66
2022/03/06 04:15:16;;;;;;;2.80;1.10;;;16.80;53.00;;;;;;5204315;28;20194;-65
2022/03/06 04:18:08;;;;;;;1.10;0.80;;;16.90;53.10;;;;;;5205195;28;20337;-64
2022/03/06 04:21:00;;;;;;;1.33;0.90;;;16.80;53.00;;;;;;5202798;28;20217;-65
2022/03/06 04:23:54;;;;;;;1.50;1.00;;;16.90;53.00;;;;;;5205060;28;20236;-65
2022/03/06 04:26:46;;;;;;;1.57;1.10;;;16.80;53.00;;;;;;5204556;28;20953;-65
2022/03/06 04:29:38;;;;;;;1.00;0.90;;;16.90;53.10;;;;;;5204573;28;20213;-66
2022/03/06 04:32:30;;;;;;;1.67;1.00;;;16.90;53.10;;;;;;5203959;28;20188;-66
2022/03/06 04:35:22;;;;;;;1.20;1.00;;;16.80;53.10;;;;;;5203028;28;20198;-66
2022/03/06 04:38:15;;;;;;;1.47;0.80;;;16.80;53.10;;;;;;5203169;28;20301;-65
2022/03/06 04:41:08;;;;;;;1.20;1.10;;;16.80;53.00;;;;;;5203014;28;20292;-66
2022/03/06 04:44:01;;;;;;;1.10;1.00;;;16.90;53.00;;;;;;5205019;28;20198;-66
2022/03/06 04:46:53;;;;;;;1.40;1.10;;;16.90;52.90;;;;;;5204171;28;20277;-66
2022/03/06 04:49:45;;;;;;;1.53;1.03;;;16.90;53.00;;;;;;5203254;28;20296;-66
2022/03/06 04:52:37;;;;;;;0.97;0.87;;;16.90;53.10;;;;;;5204038;28;20190;-65
2022/03/06 04:55:29;;;;;;;1.20;1.10;;;16.90;53.00;;;;;;5205486;28;20623;-66
2022/03/06 04:58:23;;;;;;;0.87;0.80;;;16.80;53.00;;;;;;5185033;28;20194;-66
2022/03/06 05:01:15;;;;;;;0.87;0.77;;;16.80;53.00;;;;;;5202430;28;20289;-65
2022/03/06 05:04:07;;;;;;;1.67;1.00;;;16.80;53.00;;;;;;5203884;28;20219;-66
2022/03/06 05:06:59;;;;;;;1.20;0.70;;;16.90;53.10;;;;;;5203898;28;20893;-65
2022/03/06 05:09:51;;;;;;;1.00;0.90;;;16.90;53.10;;;;;;5218677;23;20702;-63
2022/03/06 05:12:44;;;;;;;2.37;1.13;;;16.90;53.10;;;;;;5186294;28;20557;-63
2022/03/06 05:15:37;;;;;;;1.17;0.90;;;16.90;53.10;;;;;;5197811;28;20341;-63
2022/03/06 05:18:29;;;;;;;1.00;0.80;;;16.90;53.00;;;;;;5180400;28;20330;-63
2022/03/06 05:21:21;;;;;;;1.23;0.80;;;16.90;53.10;;;;;;5183260;28;20984;-63
2022/03/06 05:24:14;;;;;;;1.47;0.97;;;16.90;53.10;;;;;;5184951;28;20186;-64
2022/03/06 05:27:06;;;;;;;1.10;1.00;;;16.90;53.20;;;;;;5184518;28;20206;-63
2022/03/06 05:29:58;;;;;;;1.60;0.87;;;16.90;53.20;;;;;;5182684;28;20294;-63
2022/03/06 05:32:51;;;;;;;0.83;0.80;;;16.90;53.20;;;;;;5183775;28;20281;-63
2022/03/06 05:35:43;;;;;;;1.30;0.90;;;16.90;53.30;;;;;;5183130;28;20197;-64
2022/03/06 05:38:36;;;;;;;1.30;0.90;;;16.90;53.30;;;;;;5184733;28;20700;-64
2022/03/06 05:41:28;;;;;;;1.53;1.00;;;16.90;53.30;;;;;;5195533;28;20623;-63
2022/03/06 05:44:21;;;;;;;1.60;1.03;;;16.90;53.30;;;;;;5190857;28;20281;-63
2022/03/06 05:47:13;;;;;;;0.73;0.70;;;16.90;53.20;;;;;;5183916;28;20226;-63
2022/03/06 05:50:08;;;;;;;0.90;0.70;;;16.90;53.20;;;;;;5193116;28;20214;-63
2022/03/06 05:53:00;;;;;;;1.47;0.80;;;16.90;53.20;;;;;;5183322;28;20203;-62
2022/03/06 05:55:52;;;;;;;0.93;0.70;;;16.90;53.10;;;;;;5183964;28;20300;-62
2022/03/06 05:58:44;;;;;;;1.37;1.10;;;16.90;53.10;;;;;;5163604;28;20752;-62
2022/03/06 06:01:38;;;;;;;1.53;1.00;;;16.90;53.10;;;;;;5162828;28;20214;-64
2022/03/06 06:04:30;;;;;;;1.13;0.93;;;16.90;53.20;;;;;;5170406;28;20206;-63
2022/03/06 06:07:25;;;;;;;1.00;0.90;;;16.90;53.20;;;;;;5205482;28;20252;-63
2022/03/06 06:10:17;;;;;;;1.33;0.93;;;16.90;53.30;;;;;;5203947;28;20710;-63
2022/03/06 06:13:10;;;;;;;0.80;0.80;;;16.90;53.20;;;;;;5194090;28;20198;-64
2022/03/06 06:16:03;;;;;;;1.23;0.80;;;16.90;53.30;;;;;;5187951;28;20194;-64
2022/03/06 06:18:55;;;;;;;1.07;0.83;;;16.90;53.20;;;;;;5179890;28;20198;-63
2022/03/06 06:21:47;;;;;;;2.27;1.13;;;16.90;53.20;;;;;;5188919;28;20652;-64
2022/03/06 06:24:41;;;;;;;0.77;0.77;;;16.90;53.20;;;;;;5188104;28;20202;-63
2022/03/06 06:27:33;;;;;;;0.67;0.63;;;16.90;53.20;;;;;;5187755;28;20230;-64
2022/03/06 06:30:26;;;;;;;1.40;0.90;;;16.90;53.20;;;;;;5187961;28;20309;-63
2022/03/06 06:33:18;;;;;;;1.33;0.80;;;16.90;53.20;;;;;;5187244;28;20194;-64
2022/03/06 06:36:10;;;;;;;1.63;0.93;;;16.90;53.10;;;;;;5189044;28;20222;-63
2022/03/06 06:39:02;;;;;;;1.83;1.00;;;17.00;53.20;;;;;;5187458;28;20332;-63
2022/03/06 06:41:56;;;;;;;1.17;1.00;;;16.90;53.20;;;;;;5188170;28;20185;-63
2022/03/06 06:44:48;;;;;;;1.57;0.90;;;16.90;53.20;;;;;;5195040;28;20342;-63
2022/03/06 06:47:40;;;;;;;1.90;1.10;;;16.90;53.20;;;;;;5197631;28;20190;-64
2022/03/06 06:50:32;;;;;;;1.27;1.00;;;17.00;53.30;;;;;;5197104;28;20256;-64
2022/03/06 06:53:24;;;;;;;1.33;0.87;;;16.90;53.20;;;;;;5187194;28;20249;-64
2022/03/06 06:56:17;;;;;;;1.57;0.80;;;17.00;53.30;;;;;;5186436;28;20277;-63
2022/03/06 06:59:11;;;;;;;1.77;0.93;;;16.90;53.20;;;;;;5186210;28;20265;-63
2022/03/06 07:02:03;;;;;;;1.83;1.07;;;16.90;53.20;;;;;;5192363;28;20717;-64
2022/03/06 07:04:55;;;;;;;1.50;0.90;;;17.00;53.30;;;;;;5165710;28;20258;-64
2022/03/06 07:07:47;;;;;;;0.93;0.80;;;16.90;53.80;;;;;;5165589;28;20305;-64
2022/03/06 07:10:39;;;;;;;1.00;0.80;;;17.00;53.30;;;;;;5166984;28;20640;-63
2022/03/06 07:13:31;;;;;;;1.40;1.00;;;17.00;53.40;;;;;;5183527;28;20722;-64
2022/03/06 07:16:25;;;;;;;2.30;1.10;;;17.00;53.50;;;;;;5186128;28;20191;-64
2022/03/06 07:19:17;;;;;;;1.10;1.00;;;17.00;53.50;;;;;;5183003;28;20701;-63
2022/03/06 07:22:10;;;;;;;1.00;0.70;;;17.00;53.40;;;;;;5185471;28;20569;-62
2022/03/06 07:25:02;;;;;;;1.53;0.90;;;17.00;53.50;;;;;;5191579;28;20191;-63
2022/03/06 07:27:54;;;;;;;0.90;0.73;;;17.00;53.50;;;;;;5194985;28;20203;-64
2022/03/06 07:30:48;;;;;;;1.53;0.90;;;17.00;53.50;;;;;;5182360;28;20322;-64
2022/03/06 07:33:41;;;;;;;1.00;0.90;;;16.90;53.60;;;;;;5184996;28;20309;-63
2022/03/06 07:36:33;;;;;;;1.10;1.00;;;17.00;53.60;;;;;;5185225;28;20587;-64
2022/03/06 07:39:25;;;;;;;1.07;0.80;;;17.00;53.60;;;;;;5185435;28;20575;-65
2022/03/06 07:42:18;;;;;;;1.47;1.00;;;17.00;53.60;;;;;;5185204;28;20183;-62
2022/03/06 07:45:11;;;;;;;1.00;0.80;;;16.90;53.60;;;;;;5185671;28;20309;-64
2022/03/06 07:48:04;;;;;;;2.10;1.03;;;17.00;53.60;;;;;;5185533;28;20343;-62
2022/03/06 07:50:58;;;;;;;0.57;0.57;;;17.00;53.60;;;;;;5184782;28;20214;-63
2022/03/06 07:53:50;;;;;;;1.93;0.83;;;17.00;53.70;;;;;;5184611;28;20262;-63
2022/03/06 07:56:42;;;;;;;1.57;1.00;;;17.00;53.70;;;;;;5185370;28;20679;-63
2022/03/06 07:59:36;;;;;;;1.10;1.00;;;17.00;53.70;;;;;;5185029;28;20342;-64
2022/03/06 08:02:28;;;;;;;1.90;0.87;;;17.00;53.70;;;;;;5184067;28;20197;-64
2022/03/06 08:05:20;;;;;;;1.13;0.87;;;17.00;53.70;;;;;;5180454;28;20199;-64
2022/03/06 08:08:14;;;;;;;1.03;0.70;;;17.00;53.70;;;;;;5183530;28;20293;-63
2022/03/06 08:11:06;;;;;;;1.00;0.80;;;17.00;53.70;;;;;;5184541;28;20218;-65
2022/03/06 08:13:58;;;;;;;0.80;0.63;;;17.00;53.70;;;;;;5185819;28;20281;-64
2022/03/06 08:16:50;;;;;;;1.37;0.80;;;17.00;53.70;;;;;;5177080;28;20195;-64
2022/03/06 08:19:42;;;;;;;1.20;0.80;;;17.00;53.70;;;;;;5190697;28;20280;-65
2022/03/06 08:22:35;;;;;;;0.70;0.70;;;17.00;54.30;;;;;;5199232;28;20802;-64
2022/03/06 08:25:28;;;;;;;1.00;0.90;;;17.00;53.70;;;;;;5204728;28;20277;-64
2022/03/06 08:28:21;;;;;;;1.10;0.77;;;17.00;53.70;;;;;;5205255;28;20276;-64
2022/03/06 08:31:13;;;;;;;0.80;0.80;;;17.00;53.70;;;;;;5196306;28;20217;-67
2022/03/06 08:34:05;;;;;;;1.50;0.87;;;17.00;53.70;;;;;;5189790;28;20623;-65
2022/03/06 08:36:57;;;;;;;0.87;0.67;;;17.00;53.80;;;;;;5185000;28;20345;-65
2022/03/06 08:39:50;;;;;;;1.30;1.00;;;17.00;53.80;;;;;;5194151;28;20242;-66
2022/03/06 08:42:43;;;;;;;1.57;0.93;;;17.00;53.80;;;;;;5164215;28;20199;-65
2022/03/06 08:45:36;;;;;;;0.80;0.80;;;17.00;53.70;;;;;;5164577;28;20282;-64
2022/03/06 08:48:28;;;;;;;1.20;0.80;;;17.00;53.80;;;;;;5164291;28;20278;-65
2022/03/06 08:51:21;;;;;;;0.70;0.63;;;17.00;53.80;;;;;;5182543;28;20229;-64
2022/03/06 08:54:13;;;;;;;1.43;0.80;;;17.00;53.80;;;;;;5196919;28;20194;-65
2022/03/06 08:57:05;;;;;;;1.30;0.83;;;17.00;53.90;;;;;;5184551;28;20329;-65
2022/03/06 08:59:59;;;;;;;1.00;0.80;;;17.00;53.90;;;;;;5184364;28;20357;-65
2022/03/06 09:02:51;;;;;;;1.20;0.70;;;17.00;54.00;;;;;;5183663;28;20281;-64
2022/03/06 09:05:43;;;;;;;1.00;0.83;;;17.00;54.10;;;;;;5162829;28;20222;-64
2022/03/06 09:08:35;;;;;;;0.70;0.60;;;17.00;54.10;;;;;;5163082;28;20209;-65
2022/03/06 09:11:27;;;;;;;1.47;0.97;;;17.00;54.00;;;;;;5163909;28;20417;-65
2022/03/06 09:14:20;;;;;;;0.93;0.73;;;17.00;54.00;;;;;;5162991;28;20592;-64
2022/03/06 09:17:13;;;;;;;1.07;0.70;;;17.00;54.50;;;;;;5169079;28;20270;-63
2022/03/06 09:20:07;;;;;;;0.80;0.80;;;17.00;53.90;;;;;;5203379;28;20315;-66
2022/03/06 09:22:59;;;;;;;2.63;1.00;;;17.00;53.80;;;;;;5187918;28;20214;-65
2022/03/06 09:25:52;;;;;;;0.80;0.67;;;17.00;53.80;;;;;;5182965;28;20322;-65
2022/03/06 09:28:44;;;;;;;0.80;0.80;;;17.00;54.40;;;;;;5184318;28;20329;-66
2022/03/06 09:31:36;;;;;;;1.30;0.80;;;17.00;53.80;;;;;;5194032;28;20234;-65
2022/03/06 09:34:29;;;;;;;1.13;0.80;;;17.00;53.80;;;;;;5183731;28;20672;-64
2022/03/06 09:37:21;;;;;;;0.80;0.70;;;17.00;53.90;;;;;;5184386;28;20277;-64
2022/03/06 09:40:14;;;;;;;0.80;0.70;;;17.00;54.00;;;;;;5183843;28;20644;-65
2022/03/06 09:43:11;;;;;;;1.30;0.70;;;17.00;54.10;;;;;;5185301;28;20193;-65
2022/03/06 09:46:05;;;;;;;0.80;0.70;;;17.00;54.30;;;;;;5192240;28;20194;-65
2022/03/06 09:48:58;;;;;;;2.93;0.80;;;17.00;54.40;;;;;;5187116;28;20282;-64
2022/03/06 09:51:51;;;;;;;1.40;0.70;;;17.00;54.40;;;;;;5161705;28;20363;-64
2022/03/06 09:54:43;;;;;;;0.83;0.60;;;17.00;54.40;;;;;;5181137;28;20198;-65
2022/03/06 09:57:36;;;;;;;2.07;0.57;;;17.00;54.50;;;;;;5183399;28;20202;-65
2022/03/06 10:00:28;;;;;;;0.73;0.57;;;17.10;54.60;;;;;;5183861;28;20263;-65
2022/03/06 10:03:22;;;;;;;1.20;0.70;;;17.00;54.50;;;;;;5183031;28;20290;-65
2022/03/06 10:06:14;;;;;;;1.63;0.90;;;17.10;54.60;;;;;;5183761;28;20277;-64
2022/03/06 10:09:07;;;;;;;1.97;0.70;;;17.00;54.60;;;;;;5180466;28;20334;-65
2022/03/06 10:12:00;;;;;;;2.08;0.80;;;17.00;54.70;;;;;;5178597;28;20431;-64
2022/03/06 10:14:53;;;;;;;3.23;1.80;;;17.10;54.80;;;;;;5181491;28;20723;-64
2022/03/06 10:17:45;;;;;;;3.53;2.00;;;17.10;54.10;;;;;;5179538;28;20702;-64
2022/03/06 10:20:37;;;;;;;7.53;2.10;;;17.00;53.80;;;;;;5191020;28;20277;-65
2022/03/06 10:23:30;;;;;;;2.63;1.70;;;16.90;53.80;;;;;;5181845;28;20257;-65
2022/03/06 10:26:25;;;;;;;3.73;1.37;;;16.90;53.80;;;;;;5183024;28;20273;-64
2022/03/06 10:29:19;;;;;;;5.33;1.70;;;16.90;53.90;;;;;;5182740;28;20314;-64
2022/03/06 10:32:11;;;;;;;3.27;1.70;;;16.80;53.90;;;;;;5182913;28;20222;-64
2022/03/06 10:35:05;;;;;;;5.27;1.50;;;16.80;54.10;;;;;;5182753;28;20203;-65
2022/03/06 10:37:57;;;;;;;4.70;1.23;;;16.80;54.10;;;;;;5182883;28;20206;-65
2022/03/06 10:40:50;;;;;;;4.30;1.37;;;16.80;54.10;;;;;;5182546;28;20223;-65
2022/03/06 10:43:44;;;;;;;3.47;1.33;;;16.70;54.10;;;;;;5182346;28;20195;-66
2022/03/06 10:46:37;;;;;;;3.57;1.60;;;16.70;54.20;;;;;;5181738;28;20730;-65
2022/03/06 10:49:30;;;;;;;2.80;1.30;;;16.70;54.30;;;;;;5181057;28;20239;-63
2022/03/06 10:52:23;;;;;;;1.97;1.30;;;16.70;54.50;;;;;;5186909;28;20683;-65
2022/03/06 10:55:15;;;;;;;2.13;1.20;;;16.70;54.50;;;;;;5182678;28;20203;-64
2022/03/06 10:58:07;;;;;;;2.53;1.53;;;16.70;54.60;;;;;;5182522;28;20233;-66
2022/03/06 11:01:02;;;;;;;4.10;1.47;;;16.70;54.70;;;;;;5183992;28;20301;-65
2022/03/06 11:03:55;;;;;;;4.60;1.43;;;16.70;54.70;;;;;;5181886;28;20648;-65
2022/03/06 11:06:48;;;;;;;1.33;1.23;;;16.70;54.60;;;;;;5187442;28;20281;-65
2022/03/06 11:09:40;;;;;;;3.27;1.50;;;16.70;54.50;;;;;;5218112;23;20753;-66
2022/03/06 11:12:36;;;;;;;4.20;1.43;;;16.70;54.60;;;;;;5199576;28;20264;-66
2022/03/06 11:15:28;;;;;;;3.70;1.20;;;16.70;54.70;;;;;;5203592;28;20189;-66
2022/03/06 11:18:22;;;;;;;2.90;0.97;;;16.70;54.70;;;;;;5195294;28;20186;-66
2022/03/06 11:21:15;;;;;;;3.73;1.30;;;16.70;54.50;;;;;;5186541;28;20194;-66
2022/03/06 11:24:11;;;;;;;1.83;1.00;;;16.70;54.50;;;;;;5196520;28;20559;-66
2022/03/06 11:27:34;;;;;;;2.00;1.00;;;16.70;54.40;;;;;;5200369;28;20276;-66
2022/03/06 11:30:27;;;;;;;4.40;1.20;;;16.70;54.30;;;;;;5208181;28;20210;-66
2022/03/06 11:33:21;;;;;;;2.40;1.10;;;16.70;54.30;;;;;;5206143;28;20206;-65
2022/03/06 11:36:20;;;;;;;1.80;1.07;;;16.70;54.50;;;;;;5207086;28;20193;-65
2022/03/06 11:39:15;;;;;;;2.77;1.20;;;16.70;54.80;;;;;;5206620;28;20237;-65
2022/03/06 11:42:09;;;;;;;5.47;1.47;;;16.80;55.00;;;;;;5206260;28;20216;-66
2022/03/06 11:45:01;;;;;;;5.10;1.33;;;16.80;55.00;;;;;;5206971;28;20197;-66
2022/03/06 11:47:53;;;;;;;6.10;1.73;;;16.90;55.00;;;;;;5206778;28;20564;-66
2022/03/06 11:51:20;;;;;;;7.13;1.90;;;16.90;55.00;;;;;;5199537;28;20193;-66
2022/03/06 11:54:18;;;;;;;4.83;2.27;;;16.90;55.00;;;;;;5195980;28;20202;-66
2022/03/06 11:57:10;;;;;;;6.03;2.17;;;17.00;55.10;;;;;;5190421;28;20202;-66
2022/03/06 12:00:15;;;;;;;5.50;1.93;;;17.00;55.10;;;;;;5189704;28;20232;-67
2022/03/06 12:03:07;;;;;;;7.97;2.67;;;17.00;55.20;;;;;;5197757;28;20193;-66
2022/03/06 12:06:00;;;;;;;8.00;3.17;;;17.00;55.20;;;;;;5191454;28;20262;-66
2022/03/06 12:08:54;;;;;;;8.43;2.90;;;17.00;55.10;;;;;;5186394;28;20559;-66
2022/03/06 12:11:48;;;;;;;12.03;3.30;;;17.00;55.10;;;;;;5186165;28;20194;-66
2022/03/06 12:14:41;;;;;;;11.43;3.00;;;17.00;55.00;;;;;;5186286;28;20183;-66
2022/03/06 12:17:36;;;;;;;9.07;3.00;;;17.00;55.10;;;;;;5194498;28;20189;-66
2022/03/06 12:20:30;;;;;;;6.53;2.67;;;17.00;55.00;;;;;;5207091;28;20222;-66
2022/03/06 12:23:28;;;;;;;7.87;2.83;;;17.00;55.00;;;;;;5205611;28;20194;-67
2022/03/06 12:26:43;;;;;;;6.47;2.70;;;17.00;55.00;;;;;;5206661;28;20228;-66
2022/03/06 12:29:56;;;;;;;8.07;2.70;;;17.00;55.00;;;;;;5204579;28;20213;-66
2022/03/06 12:32:48;;;;;;;7.90;2.70;;;16.90;54.90;;;;;;5205941;28;20728;-66
2022/03/06 12:35:41;;;;;;;8.57;2.50;;;17.00;55.00;;;;;;5206678;28;20194;-66
2022/03/06 12:38:35;;;;;;;6.87;2.47;;;16.90;55.00;;;;;;5204986;28;20206;-69
2022/03/06 12:41:28;;;;;;;9.57;2.63;;;16.90;54.90;;;;;;5205096;28;20220;-66
2022/03/06 12:44:25;;;;;;;6.00;2.63;;;17.00;55.30;;;;;;5205630;28;20197;-67
2022/03/06 12:47:17;;;;;;;5.77;2.23;;;17.00;55.40;;;;;;5200926;28;20190;-67
2022/03/06 12:50:12;;;;;;;8.33;2.57;;;17.00;55.40;;;;;;5189202;28;20692;-68
2022/03/06 12:53:04;;;;;;;6.37;2.57;;;17.00;55.30;;;;;;5184626;28;20299;-68
2022/03/06 12:55:58;;;;;;;6.07;2.37;;;16.90;54.80;;;;;;5184320;28;20277;-68
2022/03/06 12:58:50;;;;;;;6.70;2.37;;;16.90;54.70;;;;;;5184885;28;20233;-68
2022/03/06 13:01:43;;;;;;;6.70;2.13;;;16.90;54.50;;;;;;5195339;28;20209;-68
2022/03/06 13:04:36;;;;;;;8.20;2.73;;;16.80;54.40;;;;;;5202435;28;20182;-67
2022/03/06 13:07:30;;;;;;;4.83;1.90;;;16.80;54.20;;;;;;5205065;28;20695;-67
2022/03/06 13:10:23;;;;;;;5.63;2.37;;;16.80;54.70;;;;;;5188536;28;20215;-67
2022/03/06 13:13:17;;;;;;;5.23;2.13;;;16.90;54.50;;;;;;5183771;28;20723;-67
2022/03/06 13:16:09;;;;;;;4.33;2.00;;;16.90;54.50;;;;;;5189201;28;20210;-67
2022/03/06 13:19:04;;;;;;;3.60;1.70;;;16.90;54.60;;;;;;5184523;28;20558;-67
2022/03/06 13:21:56;;;;;;;7.27;2.20;;;16.90;54.70;;;;;;5200678;28;20291;-67
2022/03/06 13:24:49;;;;;;;4.67;1.80;;;16.90;54.80;;;;;;5184552;28;20191;-66
2022/03/06 13:27:43;;;;;;;4.20;2.00;;;17.00;54.90;;;;;;5184496;28;20231;-66
2022/03/06 13:30:38;;;;;;;4.83;1.63;;;16.90;54.80;;;;;;5187743;28;20209;-67
2022/03/06 13:33:31;;;;;;;4.53;1.70;;;17.00;54.90;;;;;;5198162;28;20212;-67
2022/03/06 13:36:25;;;;;;;5.37;1.97;;;16.90;55.00;;;;;;5200032;28;20226;-66
2022/03/06 13:39:20;;;;;;;4.93;2.03;;;17.00;55.00;;;;;;5181288;28;20220;-66
2022/03/06 13:42:12;;;;;;;4.10;1.47;;;17.00;55.10;;;;;;5183772;28;20190;-67
2022/03/06 13:45:10;;;;;;;4.53;1.90;;;17.00;55.00;;;;;;5192025;28;20280;-67
2022/03/06 13:48:06;;;;;;;5.10;2.00;;;17.00;55.00;;;;;;5200602;28;20197;-67
2022/03/06 13:50:58;;;;;;;4.43;1.77;;;17.00;54.80;;;;;;5192444;28;20202;-67
2022/03/06 13:53:55;;;;;;;4.53;1.80;;;17.00;54.80;;;;;;5193325;28;20783;-66
2022/03/06 13:56:48;;;;;;;4.47;1.70;;;17.00;54.80;;;;;;5194107;28;20185;-67
2022/03/06 13:59:42;;;;;;;2.70;1.43;;;17.00;54.90;;;;;;5194796;28;20205;-68
2022/03/06 14:02:35;;;;;;;5.17;1.90;;;17.00;55.00;;;;;;5184653;28;20723;-67
2022/03/06 14:05:29;;;;;;;4.07;1.33;;;17.00;54.90;;;;;;5185668;28;20209;-66
2022/03/06 14:08:24;;;;;;;3.43;2.00;;;17.00;55.00;;;;;;5184574;28;20244;-66
2022/03/06 14:11:25;;;;;;;2.80;1.40;;;17.00;54.90;;;;;;5183441;28;20669;-67
2022/03/06 14:14:17;;;;;;;4.43;1.50;;;17.00;54.90;;;;;;5184212;28;20356;-66
2022/03/06 14:17:12;;;;;;;4.33;1.40;;;16.90;54.80;;;;;;5183646;28;20224;-67
2022/03/06 14:20:06;;;;;;;3.03;1.40;;;16.90;55.00;;;;;;5184061;28;20225;-66
2022/03/06 14:22:59;;;;;;;2.70;1.40;;;16.90;55.00;;;;;;5183440;28;20201;-67
2022/03/06 14:25:52;;;;;;;3.00;1.67;;;16.90;54.90;;;;;;5194676;28;20280;-67
2022/03/06 14:28:51;;;;;;;4.10;1.83;;;17.00;55.00;;;;;;5205123;28;20209;-67
2022/03/06 14:31:45;;;;;;;4.53;1.73;;;16.90;54.90;;;;;;5204871;28;20190;-67
2022/03/06 14:34:37;;;;;;;4.37;1.83;;;17.00;54.90;;;;;;5204867;28;20239;-67
2022/03/06 14:37:29;;;;;;;2.90;1.30;;;16.90;54.80;;;;;;5208744;28;20251;-67
2022/03/06 14:40:23;;;;;;;3.43;1.40;;;17.00;54.80;;;;;;5207657;28;20209;-67
2022/03/06 14:43:15;;;;;;;2.70;1.40;;;16.90;54.80;;;;;;5206759;28;20534;-66
2022/03/06 14:46:10;;;;;;;3.00;1.43;;;16.90;54.90;;;;;;5209126;28;20197;-67
2022/03/06 14:49:05;;;;;;;3.67;1.53;;;17.00;54.90;;;;;;5204725;28;20214;-66
2022/03/06 14:51:57;;;;;;;4.40;1.80;;;16.90;54.80;;;;;;5206947;28;20228;-66
2022/03/06 14:54:49;;;;;;;4.77;1.70;;;17.00;54.90;;;;;;5205397;28;20225;-66
2022/03/06 14:57:43;;;;;;;2.40;1.23;;;16.90;55.10;;;;;;5193616;28;20199;-67
2022/03/06 15:00:36;;;;;;;3.63;1.43;;;16.90;55.50;;;;;;5186909;28;20269;-67
2022/03/06 15:03:30;;;;;;;3.70;1.50;;;17.00;55.60;;;;;;5194700;28;20186;-67